Time;durP1;ratioP1;P1;durP2;ratioP2;P2;SDS_P1;SDS_P2;PMS_P1;PMS_P2;Temp;Humidity;BMP_temperature;BMP_pressure;BME280_temperature;BME280_humidity;BME280_pressure;Samples;Min_cycle;Max_cycle;Signal;HPM_P1;HPM_P2
2023/01/04 00:00:29;;;;;;;4.25;1.90;;;;;;;8.40;100.00;101060.91;5054923;28;20029;-64
2023/01/04 00:02:54;;;;;;;5.72;2.03;;;;;;;8.42;100.00;101068.72;5055316;28;20037;-64
2023/01/04 00:05:20;;;;;;;6.32;2.00;;;;;;;8.41;100.00;101054.78;5037295;28;20391;-64
2023/01/04 00:07:45;;;;;;;9.65;2.20;;;;;;;8.36;100.00;101056.66;5055114;28;20116;-64
2023/01/04 00:10:10;;;;;;;3.97;1.75;;;;;;;8.30;100.00;101035.06;5054717;28;20032;-64
2023/01/04 00:12:36;;;;;;;11.07;2.28;;;;;;;8.33;100.00;101043.69;5050097;28;20459;-65
2023/01/04 00:15:02;;;;;;;6.30;2.15;;;;;;;8.37;100.00;101031.34;5054732;28;20021;-64
2023/01/04 00:17:27;;;;;;;10.02;3.28;;;;;;;8.34;100.00;101034.06;5054775;28;20040;-64
2023/01/04 00:19:52;;;;;;;7.20;2.28;;;;;;;8.28;100.00;101021.13;5054672;28;20021;-65
2023/01/04 00:22:18;;;;;;;7.75;2.38;;;;;;;8.15;100.00;101018.88;5053078;28;20120;-64
2023/01/04 00:24:43;;;;;;;4.90;2.05;;;;;;;8.15;100.00;101023.25;5052610;28;20048;-65
2023/01/04 00:27:08;;;;;;;6.65;1.92;;;;;;;7.95;100.00;101002.91;5054929;28;20032;-65
2023/01/04 00:29:34;;;;;;;7.05;2.63;;;;;;;7.81;100.00;100980.69;5054282;28;20096;-66
2023/01/04 00:31:59;;;;;;;6.95;2.60;;;;;;;7.94;100.00;101008.22;5052501;28;20028;-65
2023/01/04 00:34:25;;;;;;;5.85;2.08;;;;;;;7.81;100.00;100986.75;5054071;28;20039;-65
2023/01/04 00:36:50;;;;;;;4.40;1.92;;;;;;;7.93;100.00;100999.50;5047474;28;20029;-64
2023/01/04 00:39:16;;;;;;;7.13;2.50;;;;;;;7.89;100.00;100997.00;5054138;28;20021;-64
2023/01/04 00:41:44;;;;;;;5.38;2.20;;;;;;;7.85;100.00;100991.00;5048048;28;20033;-65
2023/01/04 00:44:10;;;;;;;5.38;2.10;;;;;;;7.80;100.00;100992.91;5041832;28;20053;-65
2023/01/04 00:46:36;;;;;;;8.95;2.65;;;;;;;7.81;100.00;100999.00;5017859;28;20089;-65
2023/01/04 00:49:02;;;;;;;7.95;1.90;;;;;;;7.78;100.00;100986.84;5031526;28;20468;-64
2023/01/04 00:51:29;;;;;;;9.68;2.03;;;;;;;7.75;100.00;100981.72;5052234;28;20040;-63
2023/01/04 00:53:55;;;;;;;3.60;1.75;;;;;;;7.57;100.00;100940.44;5044236;28;20025;-64
2023/01/04 00:56:20;;;;;;;5.78;2.22;;;;;;;7.74;100.00;100969.53;5054049;28;20452;-64
2023/01/04 00:58:46;;;;;;;14.07;2.20;;;;;;;7.58;100.00;100947.34;5054431;28;20029;-64
2023/01/04 01:01:11;;;;;;;6.75;2.80;;;;;;;7.67;100.00;100952.34;5054253;28;20032;-64
2023/01/04 01:03:37;;;;;;;6.07;2.40;;;;;;;7.61;100.00;100947.25;5053855;28;20028;-64
2023/01/04 01:06:04;;;;;;;6.60;2.75;;;;;;;7.68;100.00;100943.56;5053993;28;20031;-64
2023/01/04 01:08:31;;;;;;;10.27;2.70;;;;;;;7.67;100.00;100942.69;5036349;28;20052;-63
2023/01/04 01:11:03;;;;;;;9.00;2.33;;;;;;;7.72;100.00;100958.28;5053836;28;20021;-64
2023/01/04 01:13:28;;;;;;;9.43;2.45;;;;;;;7.71;100.00;100959.16;5054073;28;20485;-65
2023/01/04 01:15:54;;;;;;;6.00;2.30;;;;;;;7.70;100.00;100954.84;5053446;28;20052;-65
2023/01/04 01:18:19;;;;;;;5.55;2.05;;;;;;;7.70;100.00;100957.47;5054106;28;20115;-65
2023/01/04 01:20:45;;;;;;;7.13;2.63;;;;;;;7.74;100.00;100953.84;5053602;28;20096;-63
2023/01/04 01:23:12;;;;;;;6.20;2.50;;;;;;;7.77;100.00;100940.69;5035384;28;20028;-64
2023/01/04 01:25:37;;;;;;;4.97;2.00;;;;;;;7.69;100.00;100946.16;5053452;28;20040;-64
2023/01/04 01:28:03;;;;;;;4.50;2.08;;;;;;;7.74;100.00;100948.59;5053211;28;20499;-64
2023/01/04 01:30:28;;;;;;;8.00;2.25;;;;;;;7.71;100.00;100943.47;5053846;28;20028;-63
2023/01/04 01:32:54;;;;;;;6.25;2.17;;;;;;;7.70;100.00;100937.38;5053536;28;20458;-63
2023/01/04 01:35:19;;;;;;;7.97;2.03;;;;;;;7.77;100.00;100938.06;5051471;28;20531;-64
2023/01/04 01:37:45;;;;;;;7.57;2.10;;;;;;;7.79;100.00;100946.72;5048792;28;20033;-64
2023/01/04 01:40:11;;;;;;;4.20;1.65;;;;;;;7.78;100.00;100939.78;5052910;28;20044;-64
2023/01/04 01:42:36;;;;;;;6.40;2.40;;;;;;;7.75;100.00;100939.88;5053066;28;20045;-64
2023/01/04 01:45:10;;;;;;;4.13;1.80;;;;;;;7.78;100.00;100929.31;5053012;28;20028;-64
2023/01/04 01:47:43;;;;;;;8.90;2.20;;;;;;;7.80;100.00;100932.75;5048039;28;20383;-65
2023/01/04 01:50:22;;;;;;;5.38;1.48;;;;;;;7.77;100.00;100914.53;5035071;28;20099;-64
2023/01/04 01:52:48;;;;;;;5.13;1.60;;;;;;;7.83;100.00;100918.72;5035422;28;20035;-64
2023/01/04 01:55:15;;;;;;;5.53;1.77;;;;;;;7.89;100.00;100939.44;5027999;28;20025;-64
2023/01/04 01:57:41;;;;;;;6.43;2.00;;;;;;;7.89;100.00;100919.38;5052403;28;20060;-64
2023/01/04 02:00:11;;;;;;;3.17;1.27;;;;;;;7.97;100.00;100927.88;5034953;28;20040;-64
2023/01/04 02:02:41;;;;;;;5.22;1.67;;;;;;;7.82;100.00;100888.22;5053025;28;20060;-64
2023/01/04 02:05:07;;;;;;;5.00;1.70;;;;;;;8.03;100.00;100919.81;5034371;28;20025;-64
2023/01/04 02:07:33;;;;;;;5.13;1.83;;;;;;;8.07;100.00;100934.53;5052378;28;20032;-65
2023/01/04 02:09:59;;;;;;;3.47;1.30;;;;;;;8.11;100.00;100923.03;5052462;28;20025;-64
2023/01/04 02:12:25;;;;;;;3.00;1.33;;;;;;;8.13;100.00;100921.25;5048901;28;20109;-64
2023/01/04 02:14:50;;;;;;;4.70;1.15;;;;;;;8.17;100.00;100925.47;5031066;28;20032;-64
2023/01/04 02:17:27;;;;;;;3.00;1.10;;;;;;;8.22;100.00;100920.06;5036156;28;20029;-63
2023/01/04 02:20:20;;;;;;;4.03;1.50;;;;;;;8.22;100.00;100918.31;5041372;28;20029;-63
2023/01/04 02:23:17;;;;;;;3.45;1.20;;;;;;;8.32;100.00;100920.66;5052462;28;20425;-63
2023/01/04 02:26:08;;;;;;;5.93;1.23;;;;;;;8.36;100.00;100927.50;5052631;28;20552;-63
2023/01/04 02:28:51;;;;;;;5.10;1.25;;;;;;;8.38;100.00;100910.00;5011409;28;20041;-63
2023/01/04 02:31:26;;;;;;;4.75;1.40;;;;;;;8.38;100.00;100926.53;5046195;28;20450;-63
2023/01/04 02:34:08;;;;;;;2.10;0.75;;;;;;;8.39;100.00;100896.00;5052032;28;20387;-63
2023/01/04 02:36:53;;;;;;;2.53;1.20;;;;;;;8.37;100.00;100882.09;5044220;28;20043;-63
2023/01/04 02:39:32;;;;;;;5.20;1.10;;;;;;;8.53;100.00;100909.47;5028403;28;20442;-63
2023/01/04 02:42:00;;;;;;;2.40;1.20;;;;;;;8.54;100.00;100905.97;5067507;28;20029;-63
2023/01/04 02:44:53;;;;;;;3.35;1.17;;;;;;;8.56;100.00;100888.44;5065694;28;20383;-64
2023/01/04 02:50:29;;;;;;;2.15;0.90;;;;;;;8.62;100.00;100872.50;5052020;28;20039;-64
2023/01/04 02:52:58;;;;;;;3.17;0.82;;;;;;;8.36;100.00;100844.59;5052498;28;20341;-63
2023/01/04 02:55:47;;;;;;;1.73;0.75;;;;;;;8.63;100.00;100889.94;5051812;28;20033;-64
2023/01/04 02:58:25;;;;;;;2.45;0.90;;;;;;;8.60;100.00;100874.31;5051841;28;20116;-64
2023/01/04 03:06:51;;;;;;;2.70;0.88;;;;;;;8.50;100.00;100872.94;5039879;28;20096;-64
2023/01/04 03:09:22;;;;;;;3.50;0.85;;;;;;;8.49;100.00;100868.59;5030353;28;20046;-64
2023/01/04 03:15:02;;;;;;;1.45;0.40;;;;;;;8.47;100.00;100863.41;5049701;28;20533;-64
2023/01/04 03:17:33;;;;;;;2.40;0.60;;;;;;;8.45;100.00;100869.63;5028361;28;20032;-64
2023/01/04 03:19:59;;;;;;;1.95;0.50;;;;;;;8.45;100.00;100853.91;5052309;28;20059;-63
2023/01/04 03:36:41;;;;;;;1.05;0.35;;;;;;;8.62;100.00;100830.59;5040120;28;20047;-63
2023/01/04 03:50:44;;;;;;;4.10;0.75;;;;;;;8.38;100.00;100821.00;5051583;28;20044;-64
2023/01/04 03:53:11;;;;;;;3.08;0.70;;;;;;;8.51;100.00;100837.97;5033821;28;20057;-63
2023/01/04 03:55:38;;;;;;;1.52;0.60;;;;;;;8.53;100.00;100833.53;5049850;28;20485;-63
2023/01/04 03:58:03;;;;;;;1.98;0.80;;;;;;;8.52;100.00;100819.56;5020873;28;20024;-64
2023/01/04 04:00:28;;;;;;;1.65;0.70;;;;;;;8.37;100.00;100803.56;5054737;28;20032;-63
2023/01/04 04:03:05;;;;;;;2.60;0.80;;;;;;;8.57;100.00;100816.81;5054927;28;20403;-63
2023/01/04 04:08:30;;;;;;;1.02;0.40;;;;;;;8.54;100.00;100817.78;5055592;28;20044;-63
2023/01/04 04:13:48;;;;;;;8.55;0.80;;;;;;;8.58;100.00;100814.13;5054878;28;20103;-63
2023/01/04 04:16:14;;;;;;;1.63;0.73;;;;;;;8.58;100.00;100808.06;5055464;28;20387;-64
2023/01/04 04:18:39;;;;;;;2.05;0.80;;;;;;;8.61;100.00;100828.91;5051987;28;20025;-64
2023/01/04 04:21:05;;;;;;;2.88;0.70;;;;;;;8.57;100.00;100811.56;5045024;28;20029;-64
2023/01/04 04:23:30;;;;;;;1.50;0.57;;;;;;;8.52;100.00;100792.53;5051555;28;20032;-64
2023/01/04 04:25:56;;;;;;;1.65;0.68;;;;;;;8.44;100.00;100779.72;5054391;28;20372;-64
2023/01/04 04:28:21;;;;;;;4.47;0.82;;;;;;;8.59;100.00;100814.97;5054238;28;20017;-64
2023/01/04 04:30:50;;;;;;;3.15;0.50;;;;;;;8.56;100.00;100805.47;5054557;28;20475;-64
2023/01/04 04:33:15;;;;;;;2.95;0.70;;;;;;;8.57;100.00;100785.38;5054139;28;20029;-64
2023/01/04 04:35:41;;;;;;;1.83;0.57;;;;;;;8.21;100.00;100740.38;5051513;28;20033;-65
2023/01/04 04:38:06;;;;;;;2.42;0.70;;;;;;;8.59;100.00;100788.78;5053705;28;20541;-64
2023/01/04 04:43:15;;;;;;;1.38;0.55;;;;;;;8.64;100.00;100779.03;5052275;28;20490;-63
2023/01/04 04:45:41;;;;;;;2.38;0.82;;;;;;;8.67;100.00;100789.38;5054134;28;20029;-64
2023/01/04 04:48:06;;;;;;;3.20;1.00;;;;;;;8.69;100.00;100774.44;5054302;28;20033;-63
2023/01/04 04:50:31;;;;;;;2.03;0.90;;;;;;;8.72;100.00;100763.84;5054311;28;20025;-63
2023/01/04 04:52:57;;;;;;;2.03;0.80;;;;;;;8.71;100.00;100754.31;5036658;28;20064;-63
2023/01/04 04:55:22;;;;;;;5.50;0.93;;;;;;;8.77;100.00;100746.22;5053700;28;20032;-63
2023/01/04 04:57:48;;;;;;;1.90;0.88;;;;;;;8.80;100.00;100751.34;5036294;28;20033;-63
2023/01/04 05:00:13;;;;;;;1.92;0.80;;;;;;;8.80;100.00;100745.25;5054171;28;20472;-63
2023/01/04 05:02:39;;;;;;;1.52;0.70;;;;;;;8.88;100.00;100744.06;5054230;28;20035;-64
2023/01/04 05:05:05;;;;;;;1.48;0.65;;;;;;;8.82;100.00;100732.97;5053740;28;20021;-63
2023/01/04 05:07:30;;;;;;;1.73;0.80;;;;;;;8.82;100.00;100723.31;5054200;28;20029;-64
2023/01/04 05:09:55;;;;;;;1.58;0.70;;;;;;;8.89;100.00;100734.44;5053357;28;20032;-64
2023/01/04 05:15:05;;;;;;;1.00;0.45;;;;;;;8.85;100.00;100720.59;5053739;28;20454;-63
2023/01/04 05:17:31;;;;;;;1.98;0.68;;;;;;;8.90;100.00;100721.25;5053523;28;20029;-64
2023/01/04 05:19:56;;;;;;;1.95;0.90;;;;;;;8.93;100.00;100726.38;5053329;28;20048;-64
2023/01/04 05:22:22;;;;;;;2.03;1.00;;;;;;;9.01;100.00;100726.09;5054084;28;20041;-63
2023/01/04 05:24:47;;;;;;;1.70;0.88;;;;;;;8.98;100.00;100727.06;5054046;28;20029;-63
2023/01/04 05:27:12;;;;;;;1.95;0.95;;;;;;;9.03;100.00;100727.75;5052661;28;20040;-63
2023/01/04 05:32:22;;;;;;;1.40;0.40;;;;;;;8.98;100.00;100713.97;5053151;28;20449;-63
2023/01/04 05:34:47;;;;;;;2.15;0.80;;;;;;;9.03;100.00;100708.53;5053340;28;20100;-64
2023/01/04 05:37:13;;;;;;;1.77;0.80;;;;;;;9.09;100.00;100719.63;5053580;28;20021;-64
2023/01/04 05:39:38;;;;;;;3.10;0.90;;;;;;;9.12;100.00;100727.41;5053350;28;20486;-64
2023/01/04 05:44:47;;;;;;;3.20;0.90;;;;;;;9.14;100.00;100715.06;5053328;28;20052;-63
2023/01/04 05:47:13;;;;;;;1.80;0.90;;;;;;;9.13;100.00;100710.72;5053142;28;20033;-64
2023/01/04 05:49:38;;;;;;;1.98;0.80;;;;;;;9.17;100.00;100704.47;5053021;28;20486;-63
2023/01/04 05:52:03;;;;;;;4.35;0.80;;;;;;;9.22;100.00;100718.25;5052978;28;20717;-63
2023/01/04 05:54:29;;;;;;;1.58;0.73;;;;;;;9.29;100.00;100712.78;5053441;28;20036;-63
2023/01/04 05:56:54;;;;;;;3.58;1.08;;;;;;;9.13;100.00;100678.41;5052630;28;20483;-63
2023/01/04 05:59:20;;;;;;;3.38;0.60;;;;;;;9.23;100.00;100704.22;5053278;28;20055;-63
2023/01/04 06:01:45;;;;;;;3.03;1.00;;;;;;;9.32;100.00;100702.16;5045903;28;20478;-63
2023/01/04 06:04:10;;;;;;;3.58;0.98;;;;;;;9.34;100.00;100689.81;5052868;28;20021;-63
2023/01/04 06:06:36;;;;;;;3.20;1.10;;;;;;;9.35;100.00;100694.16;5052993;28;20040;-63
2023/01/04 06:09:01;;;;;;;5.07;0.80;;;;;;;9.29;100.00;100681.31;5052850;28;20060;-63
2023/01/04 06:11:26;;;;;;;1.77;0.63;;;;;;;9.36;100.00;100672.28;5051571;28;20543;-64
2023/01/04 06:13:52;;;;;;;1.88;0.70;;;;;;;9.41;100.00;100689.53;5052901;28;20021;-63
2023/01/04 06:16:17;;;;;;;2.90;0.85;;;;;;;9.45;100.00;100685.00;5052152;28;20120;-64
2023/01/04 06:18:42;;;;;;;2.38;0.70;;;;;;;9.39;100.00;100674.78;5052799;28;20025;-63
2023/01/04 06:21:08;;;;;;;1.40;0.68;;;;;;;9.36;100.00;100685.38;5051951;28;20113;-63
2023/01/04 06:23:33;;;;;;;1.95;0.82;;;;;;;9.40;100.00;100700.06;5052957;28;20048;-63
2023/01/04 06:25:59;;;;;;;1.00;0.50;;;;;;;9.31;100.00;100695.19;5052060;28;20371;-64
2023/01/04 06:28:24;;;;;;;3.95;0.90;;;;;;;9.32;100.00;100694.28;5052289;28;20029;-63
2023/01/04 06:30:49;;;;;;;1.85;0.80;;;;;;;9.21;100.00;100677.22;5052752;28;20475;-63
2023/01/04 06:33:15;;;;;;;2.15;0.88;;;;;;;9.19;100.00;100665.91;5039296;28;20033;-63
2023/01/04 06:35:40;;;;;;;1.80;0.90;;;;;;;9.32;100.00;100691.66;5052646;28;20382;-63
2023/01/04 06:38:05;;;;;;;7.60;1.15;;;;;;;9.31;100.00;100711.78;5045268;28;20033;-63
2023/01/04 06:40:31;;;;;;;3.83;1.25;;;;;;;9.37;100.00;100713.28;5052020;28;20112;-63
2023/01/04 06:42:56;;;;;;;3.85;1.20;;;;;;;9.37;100.00;100710.69;5051147;28;20044;-64
2023/01/04 06:45:21;;;;;;;2.33;1.27;;;;;;;9.36;100.00;100686.22;5033278;28;20804;-64
2023/01/04 06:47:47;;;;;;;2.42;0.95;;;;;;;9.39;100.00;100673.00;5049742;28;20032;-63
2023/01/04 06:50:13;;;;;;;2.40;1.17;;;;;;;9.38;100.00;100675.69;5052103;28;20029;-63
2023/01/04 06:52:38;;;;;;;2.55;0.90;;;;;;;9.41;100.00;100686.03;5051834;28;20468;-63
2023/01/04 06:55:05;;;;;;;2.50;1.17;;;;;;;9.48;100.00;100698.84;5051906;28;20479;-64
2023/01/04 06:57:31;;;;;;;4.20;1.20;;;;;;;9.46;100.00;100689.34;5050374;28;20028;-63
2023/01/04 06:59:56;;;;;;;2.42;1.05;;;;;;;9.41;100.00;100671.16;5052296;28;20032;-63
2023/01/04 07:02:22;;;;;;;2.70;1.08;;;;;;;9.55;100.00;100692.44;5034823;28;20121;-63
2023/01/04 07:04:47;;;;;;;2.67;0.95;;;;;;;9.48;100.00;100675.25;5052058;28;20116;-63
2023/01/04 07:07:13;;;;;;;5.30;1.20;;;;;;;9.51;100.00;100682.97;5042454;28;20020;-63
2023/01/04 07:09:38;;;;;;;4.47;1.00;;;;;;;9.51;100.00;100687.38;5033508;28;20025;-63
2023/01/04 07:12:04;;;;;;;2.55;1.05;;;;;;;9.56;100.00;100693.28;5052076;28;20033;-64
2023/01/04 07:14:29;;;;;;;3.28;1.13;;;;;;;9.55;100.00;100673.22;5051138;28;20041;-64
2023/01/04 07:16:55;;;;;;;2.30;1.02;;;;;;;9.59;100.00;100667.78;5051990;28;20398;-63
2023/01/04 07:19:20;;;;;;;2.95;1.20;;;;;;;9.55;100.00;100667.97;5049842;28;20379;-63
2023/01/04 07:21:46;;;;;;;2.50;0.80;;;;;;;9.56;100.00;100664.44;5049588;28;20036;-63
2023/01/04 07:24:11;;;;;;;3.10;1.23;;;;;;;9.63;100.00;100673.75;5050043;28;20028;-64
2023/01/04 07:26:36;;;;;;;2.60;1.00;;;;;;;9.60;100.00;100655.50;5049523;28;20091;-64
2023/01/04 07:29:15;;;;;;;2.60;1.08;;;;;;;9.63;100.00;100658.03;5038736;28;20136;-64
2023/01/04 07:31:46;;;;;;;2.78;0.90;;;;;;;9.67;100.00;100680.56;5050121;28;20025;-63
2023/01/04 07:34:12;;;;;;;3.28;1.08;;;;;;;9.68;100.00;100680.50;5050324;28;20029;-64
2023/01/04 07:36:39;;;;;;;3.38;1.40;;;;;;;9.65;100.00;100674.53;5052957;28;20096;-64
2023/01/04 07:39:05;;;;;;;3.05;1.30;;;;;;;9.66;100.00;100660.50;5053139;28;20021;-63
2023/01/04 07:41:31;;;;;;;2.80;0.82;;;;;;;9.75;100.00;100671.47;5052978;28;20131;-63
2023/01/04 07:43:56;;;;;;;2.05;1.00;;;;;;;9.77;100.00;100664.38;5052557;28;20779;-63
2023/01/04 07:46:22;;;;;;;2.58;1.10;;;;;;;9.84;100.00;100659.72;5053346;28;20099;-63
2023/01/04 07:48:47;;;;;;;3.75;1.10;;;;;;;9.87;100.00;100675.31;5052178;28;20035;-63
2023/01/04 07:51:12;;;;;;;3.00;1.35;;;;;;;9.88;100.00;100661.28;5052445;28;20506;-64
2023/01/04 07:53:38;;;;;;;2.63;1.02;;;;;;;9.92;100.00;100672.50;5047328;28;20027;-63
2023/01/04 07:56:03;;;;;;;2.13;1.10;;;;;;;9.82;100.00;100645.81;5036278;28;20418;-63
2023/01/04 07:58:32;;;;;;;7.45;1.85;;;;;;;9.78;100.00;100633.75;5036388;28;20037;-63
2023/01/04 08:01:12;;;;;;;3.60;1.30;;;;;;;9.90;100.00;100659.44;5036703;28;20025;-63
2023/01/04 08:03:38;;;;;;;4.15;1.65;;;;;;;9.91;100.00;100655.91;5048621;28;20123;-63
2023/01/04 08:06:05;;;;;;;2.92;1.75;;;;;;;9.90;100.00;100643.69;5053534;28;20475;-63
2023/01/04 08:08:31;;;;;;;2.72;1.27;;;;;;;9.97;100.00;100654.81;5052535;28;20658;-63
2023/01/04 08:11:04;;;;;;;3.20;1.27;;;;;;;9.96;100.00;100653.94;5053123;28;20037;-63
2023/01/04 08:13:29;;;;;;;2.40;1.30;;;;;;;9.94;100.00;100632.16;5053228;28;20063;-63
2023/01/04 08:15:55;;;;;;;2.67;1.30;;;;;;;9.99;100.00;100650.34;5053420;28;20080;-63
2023/01/04 08:18:20;;;;;;;3.35;1.50;;;;;;;9.80;100.00;100616.13;5045507;28;20139;-63
2023/01/04 08:20:46;;;;;;;4.28;1.20;;;;;;;9.91;100.00;100649.81;5052823;28;20021;-63
2023/01/04 08:23:11;;;;;;;3.08;1.45;;;;;;;9.94;100.00;100634.78;5058628;28;20027;-65
2023/01/04 08:25:37;;;;;;;4.68;1.75;;;;;;;9.87;100.00;100635.97;5034189;28;20025;-68
2023/01/04 08:28:02;;;;;;;2.38;1.08;;;;;;;9.94;100.00;100649.66;5056952;28;20029;-65
2023/01/04 08:30:28;;;;;;;2.67;1.30;;;;;;;9.91;100.00;100640.16;5036433;28;20450;-68
2023/01/04 08:32:53;;;;;;;2.03;0.93;;;;;;;9.97;100.00;100646.94;5060750;28;20032;-63
2023/01/04 08:35:19;;;;;;;1.83;0.80;;;;;;;10.06;100.00;100652.63;5052893;28;20036;-63
2023/01/04 08:37:44;;;;;;;2.70;1.17;;;;;;;10.05;100.00;100637.78;5060048;28;20399;-63
2023/01/04 08:40:11;;;;;;;3.50;1.30;;;;;;;10.15;100.00;100652.25;5053157;28;20032;-69
2023/01/04 08:42:36;;;;;;;2.75;1.25;;;;;;;10.16;100.00;100630.31;5057928;28;20116;-63
2023/01/04 08:45:03;;;;;;;4.20;1.17;;;;;;;10.29;100.00;100653.41;5035018;28;20040;-65
2023/01/04 08:47:30;;;;;;;2.75;1.30;;;;;;;10.28;100.00;100642.03;5053026;28;20483;-64
2023/01/04 08:49:56;;;;;;;3.35;1.50;;;;;;;10.36;100.00;100639.06;5035730;28;20060;-64
2023/01/04 08:52:21;;;;;;;2.65;1.30;;;;;;;10.41;100.00;100643.19;5052083;28;20025;-65
2023/01/04 08:54:48;;;;;;;1.55;0.80;;;;;;;10.27;100.00;100616.72;5052648;28;20060;-63
2023/01/04 08:57:14;;;;;;;1.90;1.02;;;;;;;10.40;100.00;100638.03;5034538;28;20109;-65
2023/01/04 08:59:39;;;;;;;2.83;1.17;;;;;;;10.42;100.00;100633.53;5052139;28;20159;-65
2023/01/04 09:02:24;;;;;;;3.28;0.93;;;;;;;10.50;100.00;100639.31;5048638;28;20129;-65
2023/01/04 09:04:49;;;;;;;;;;;;;;;10.57;100.00;100631.06;5031041;28;20041;-66
2023/01/04 09:07:15;;;;;;;3.60;0.93;;;;;;;10.60;100.00;100624.81;5043427;28;19912;-66
2023/01/04 09:09:41;;;;;;;2.67;1.20;;;;;;;10.51;100.00;100614.75;5046997;28;20083;-67
2023/01/04 09:12:06;;;;;;;2.92;0.90;;;;;;;10.59;100.00;100626.59;5047488;28;20101;-65
2023/01/04 09:14:31;;;;;;;3.42;0.93;;;;;;;10.65;100.00;100634.19;5035123;28;20104;-63
2023/01/04 09:16:57;;;;;;;3.22;1.23;;;;;;;10.61;100.00;100631.78;5052694;28;20055;-63
2023/01/04 09:19:22;;;;;;;2.45;1.20;;;;;;;10.59;100.00;100633.63;5051699;28;20040;-62
2023/01/04 09:21:48;;;;;;;3.72;1.23;;;;;;;10.60;100.00;100632.69;5052708;28;20060;-64
2023/01/04 09:24:13;;;;;;;3.15;0.98;;;;;;;10.49;100.00;100611.31;5035583;28;20079;-63
2023/01/04 09:26:39;;;;;;;1.50;0.60;;;;;;;10.67;100.00;100642.00;5053111;28;20055;-63
2023/01/04 09:29:05;;;;;;;3.00;0.93;;;;;;;10.65;100.00;100643.84;5052658;28;20029;-62
2023/01/04 09:31:31;;;;;;;2.88;1.10;;;;;;;10.66;100.00;100656.06;5059361;28;20044;-63
2023/01/04 09:33:57;;;;;;;2.78;0.98;;;;;;;10.64;100.00;100652.66;5052845;28;20136;-62
2023/01/04 09:36:23;;;;;;;3.15;1.00;;;;;;;10.60;100.00;100658.97;5053924;28;20037;-62
2023/01/04 09:38:50;;;;;;;2.95;1.02;;;;;;;10.54;100.00;100662.75;5053198;28;20529;-62
2023/01/04 09:41:30;;;;;;;3.83;1.33;;;;;;;10.52;100.00;100664.56;5057931;28;20355;-62
2023/01/04 09:43:58;;;;;;;3.38;0.90;;;;;;;10.50;100.00;100649.81;5035029;28;20108;-62
2023/01/04 09:46:31;;;;;;;2.00;0.77;;;;;;;10.46;100.00;100648.25;5042462;28;20059;-62
2023/01/04 09:49:12;;;;;;;2.83;1.13;;;;;;;10.45;100.00;100652.63;5053850;28;20025;-62
2023/01/04 09:51:39;;;;;;;6.75;1.25;;;;;;;10.43;100.00;100653.63;5061325;28;20098;-62
2023/01/04 09:54:15;;;;;;;4.57;1.20;;;;;;;10.33;100.00;100642.69;5047932;28;20357;-62
2023/01/04 09:56:48;;;;;;;2.80;1.10;;;;;;;10.44;100.00;100657.97;5040463;28;20382;-63
2023/01/04 09:59:15;;;;;;;2.65;1.20;;;;;;;10.40;100.00;100665.16;5038443;28;20090;-62
2023/01/04 10:01:47;;;;;;;3.88;1.60;;;;;;;10.44;100.00;100653.59;5034853;28;20043;-63
2023/01/04 10:04:44;;;;;;;4.57;1.30;;;;;;;10.49;100.00;100658.59;5031344;28;20476;-62
2023/01/04 10:07:17;;;;;;;2.95;1.38;;;;;;;10.52;100.00;100651.44;5051947;28;20083;-63
2023/01/04 10:09:43;;;;;;;7.78;1.80;;;;;;;10.50;100.00;100650.66;5034968;28;20056;-63
2023/01/04 10:12:31;;;;;;;3.55;1.45;;;;;;;10.49;100.00;100661.22;5056353;28;20068;-63
2023/01/04 10:15:18;;;;;;;6.93;2.05;;;;;;;10.39;100.00;100637.16;5067476;28;20035;-63
2023/01/04 10:18:00;;;;;;;3.60;1.70;;;;;;;10.58;100.00;100637.16;5049652;28;20040;-65
2023/01/04 10:20:52;;;;;;;3.90;1.20;;;;;;;10.57;100.00;100646.84;5046344;28;20082;-63
2023/01/04 10:23:27;;;;;;;8.23;2.08;;;;;;;10.57;100.00;100645.97;5051190;28;20037;-62
2023/01/04 10:26:00;;;;;;;3.70;1.88;;;;;;;10.55;100.00;100638.16;5052095;28;20025;-62
2023/01/04 10:28:51;;;;;;;6.88;1.88;;;;;;;10.58;100.00;100650.28;5015369;28;20439;-62
2023/01/04 10:31:25;;;;;;;3.83;1.77;;;;;;;10.56;100.00;100632.00;5050457;28;20866;-64
2023/01/04 10:34:02;;;;;;;4.13;2.00;;;;;;;10.57;100.00;100641.59;5067309;28;20040;-63
2023/01/04 10:36:30;;;;;;;10.80;2.17;;;;;;;10.60;100.00;100630.94;5052463;28;20029;-62
2023/01/04 10:39:12;;;;;;;8.55;2.38;;;;;;;10.47;100.00;100613.19;5052123;28;20032;-62
2023/01/04 10:41:43;;;;;;;4.22;2.25;;;;;;;10.47;100.00;100602.66;5067838;28;20482;-63
2023/01/04 10:44:27;;;;;;;3.42;1.65;;;;;;;10.60;100.00;100625.66;5033592;28;20033;-62
2023/01/04 10:46:58;;;;;;;4.43;1.98;;;;;;;10.62;100.00;100622.94;5051603;28;20160;-62
2023/01/04 10:49:32;;;;;;;10.02;2.20;;;;;;;10.60;100.00;100622.19;5049070;28;20068;-62
2023/01/04 10:52:00;;;;;;;3.92;1.70;;;;;;;10.62;100.00;100607.19;5050490;28;20036;-64
2023/01/04 10:54:47;;;;;;;5.53;2.60;;;;;;;10.60;100.00;100615.16;5050833;28;20029;-62
2023/01/04 10:57:19;;;;;;;4.05;2.17;;;;;;;10.64;100.00;100619.34;5033621;28;20029;-63
2023/01/04 10:59:53;;;;;;;7.68;2.33;;;;;;;10.66;100.00;100608.75;5051808;28;20079;-62
2023/01/04 11:02:40;;;;;;;4.63;1.65;;;;;;;10.67;100.00;100610.47;5051473;28;20037;-64
2023/01/04 11:05:21;;;;;;;3.90;2.03;;;;;;;10.66;100.00;100614.00;5049590;28;20067;-62
2023/01/04 11:08:00;;;;;;;3.40;1.50;;;;;;;10.55;100.00;100584.75;4998814;28;20104;-63
2023/01/04 11:10:34;;;;;;;3.05;1.70;;;;;;;10.63;100.00;100593.13;5048560;28;20481;-64
2023/01/04 11:13:00;;;;;;;3.70;1.13;;;;;;;10.57;100.00;100583.78;5045486;28;20040;-63
2023/01/04 11:15:28;;;;;;;4.25;1.35;;;;;;;10.66;100.00;100595.63;5056061;28;20025;-63
2023/01/04 11:17:53;;;;;;;4.47;1.83;;;;;;;10.62;100.00;100578.28;5055643;28;20463;-63
2023/01/04 11:20:19;;;;;;;3.95;1.40;;;;;;;10.61;100.00;100568.72;5056116;28;20063;-63
2023/01/04 11:22:53;;;;;;;3.30;1.75;;;;;;;10.53;100.00;100569.06;5055919;28;20064;-63
2023/01/04 11:25:20;;;;;;;5.05;1.40;;;;;;;10.64;100.00;100579.09;5056184;28;20036;-63
2023/01/04 11:27:52;;;;;;;4.22;1.65;;;;;;;10.69;100.00;100587.59;5014801;28;20032;-63
2023/01/04 11:30:26;;;;;;;5.78;1.65;;;;;;;10.66;100.00;100578.06;5055447;28;20068;-63
2023/01/04 11:33:02;;;;;;;3.03;1.60;;;;;;;10.68;100.00;100570.09;5053178;28;20048;-63
2023/01/04 11:35:50;;;;;;;4.80;1.60;;;;;;;10.69;100.00;100579.69;5029929;28;20029;-64
2023/01/04 11:38:16;;;;;;;3.90;1.25;;;;;;;10.69;100.00;100584.97;5036088;28;20391;-63
2023/01/04 11:41:04;;;;;;;2.22;1.25;;;;;;;10.50;100.00;100550.84;5055161;28;20021;-64
2023/01/04 11:43:34;;;;;;;2.05;0.80;;;;;;;10.62;100.00;100570.41;5055505;28;20045;-64
2023/01/04 11:46:01;;;;;;;5.45;1.50;;;;;;;10.68;100.00;100580.63;5055496;28;20142;-64
2023/01/04 11:48:39;;;;;;;2.95;1.52;;;;;;;10.70;100.00;100578.78;5054870;28;20090;-63
2023/01/04 11:51:08;;;;;;;2.17;0.93;;;;;;;10.68;100.00;100578.84;5052209;28;20072;-63
2023/01/04 11:53:36;;;;;;;2.20;1.20;;;;;;;10.68;100.00;100572.72;5037059;28;20037;-63
2023/01/04 11:56:13;;;;;;;3.10;1.20;;;;;;;10.72;100.00;100579.56;5043125;28;20020;-64
2023/01/04 11:58:39;;;;;;;2.80;1.17;;;;;;;10.72;100.00;100567.25;5055724;28;20032;-63
2023/01/04 12:01:04;;;;;;;3.17;1.10;;;;;;;10.71;100.00;100578.69;5055766;28;20033;-64
2023/01/04 12:03:39;;;;;;;2.72;1.30;;;;;;;10.74;100.00;100564.56;5042220;28;20029;-64
2023/01/04 12:06:21;;;;;;;2.88;1.20;;;;;;;10.56;100.00;100539.16;5054892;28;20391;-64
2023/01/04 12:08:47;;;;;;;7.40;1.40;;;;;;;10.71;100.00;100562.09;5037631;28;20380;-64
2023/01/04 12:11:37;;;;;;;2.78;1.00;;;;;;;10.78;100.00;100582.72;5053420;28;20391;-63
2023/01/04 12:14:04;;;;;;;1.90;1.02;;;;;;;10.74;100.00;100560.19;5053416;28;20391;-63
2023/01/04 12:17:06;;;;;;;6.00;1.50;;;;;;;10.80;100.00;100556.38;5050091;28;20044;-63
2023/01/04 12:19:33;;;;;;;2.25;1.27;;;;;;;10.83;100.00;100552.75;5039495;28;20116;-64
2023/01/04 12:22:01;;;;;;;1.95;0.90;;;;;;;10.83;100.00;100556.25;5054978;28;20426;-63
2023/01/04 12:24:30;;;;;;;2.45;0.98;;;;;;;10.80;100.00;100543.25;5053193;28;20495;-63